Moleson — HBLE — position and weather

sailwx.info

Track history (hours):
 
Tides and Currents Weather Stations Pressure Air Temp Water Temp Dewpoint Dewpoint Depression Visibility Wind Speed Wind Dir Waves Ship Positions

Moleson

Last reported at 2016-Feb-01 22:19 UTC. Time now 2016-Feb-13 10:59 UTC.
Position S 34°44' E 018°52'.
Warning: this ship's position is 11 days out of date.

Length 181 m; draft 9.4 m.

Type: Ship. MMSI: 269039000.

Date/timePositionNaut miles runAvg speedWind from/ knotsBaromVisibWave heightAir tempDewpointWater temp
2016-Feb-01 22:19S 34°44' E 018°52'2812.6
2016-Feb-01 20:04S 34°54' E 019°24'59712.3
2016-Jan-30 19:33S 32°49' E 031°08'1413.1
2016-Jan-30 18:30S 32°43' E 031°22'4313.4
2016-Jan-30 15:18S 32°23' E 032°08'1512.7
2016-Jan-30 14:08S 32°17' E 032°24'912.5
2016-Jan-30 13:25S 32°12' E 032°33'1112.4
2016-Jan-30 12:33S 32°08' E 032°44'1212.1
2016-Jan-30 11:32S 32°02' E 032°57'1212.1
2016-Jan-30 10:33S 31°57' E 033°10'1311.9
2016-Jan-30 09:30S 31°51' E 033°23'  
Track history (hours):
 
Tides and Currents Weather Stations Pressure Air Temp Water Temp Dewpoint Dewpoint Depression Visibility Wind Speed Wind Dir Waves Ship Positions

Moleson

Last reported at 2016-Feb-01 22:19 UTC. Time now 2016-Feb-13 10:59 UTC.
Position S 34°44' E 018°52'.
Warning: this ship's position is 11 days out of date.

Length 181 m; draft 9.4 m.

Type: Ship. MMSI: 269039000.

Date/timePositionNaut miles runAvg speedWind from/ knotsBaromVisibWave heightAir tempDewpointWater temp
2016-Feb-01 22:19S 34°44' E 018°52'2812.6
2016-Feb-01 20:04S 34°54' E 019°24'59712.3
2016-Jan-30 19:33S 32°49' E 031°08'1413.1
2016-Jan-30 18:30S 32°43' E 031°22'4313.4
2016-Jan-30 15:18S 32°23' E 032°08'1512.7
2016-Jan-30 14:08S 32°17' E 032°24'912.5
2016-Jan-30 13:25S 32°12' E 032°33'1112.4
2016-Jan-30 12:33S 32°08' E 032°44'1212.1
2016-Jan-30 11:32S 32°02' E 032°57'1212.1
2016-Jan-30 10:33S 31°57' E 033°10'1311.9
2016-Jan-30 09:30S 31°51' E 033°23'  

Dump ship's entire track history